createdAt,value
2022-08-27T00:05:09.268Z,1.8
2022-08-27T00:11:09.275Z,1.6
2022-08-27T00:17:09.289Z,1.6
2022-08-27T00:23:09.317Z,1.4
2022-08-27T00:29:09.459Z,1.6
2022-08-27T00:35:09.289Z,1.4
2022-08-27T00:41:09.280Z,1.5
2022-08-27T00:47:09.307Z,1.4
2022-08-27T00:53:09.304Z,1.4
2022-08-27T00:59:09.304Z,1.1
2022-08-27T01:05:09.310Z,1
2022-08-27T01:11:09.354Z,0.9
2022-08-27T01:17:09.313Z,0.6
2022-08-27T01:23:09.327Z,0.6
2022-08-27T01:29:09.307Z,0.4
2022-08-27T01:35:09.299Z,0.4
2022-08-27T01:41:09.314Z,0.2
2022-08-27T01:47:09.303Z,0
2022-08-27T01:53:09.305Z,0
2022-08-27T01:59:09.316Z,0
2022-08-27T02:05:09.329Z,0
2022-08-27T02:11:09.331Z,0
2022-08-27T02:17:09.308Z,0
2022-08-27T02:23:09.328Z,0
2022-08-27T02:29:09.285Z,0
2022-08-27T02:35:09.303Z,0
2022-08-27T02:41:09.292Z,0
2022-08-27T02:47:09.300Z,0
2022-08-27T02:53:09.447Z,0
2022-08-27T02:59:09.316Z,0.1
2022-08-27T03:05:09.318Z,0
2022-08-27T03:11:09.305Z,0
2022-08-27T03:17:09.321Z,0
2022-08-27T03:23:09.361Z,0
2022-08-27T03:29:09.323Z,0
2022-08-27T03:35:09.310Z,0
2022-08-27T03:41:09.319Z,0
2022-08-27T03:47:09.322Z,0
2022-08-27T03:53:09.338Z,0
2022-08-27T03:59:09.351Z,0
2022-08-27T04:05:09.314Z,0
2022-08-27T04:11:09.312Z,0
2022-08-27T04:17:09.341Z,0
2022-08-27T04:23:09.349Z,0
2022-08-27T04:29:09.352Z,0
2022-08-27T04:35:09.315Z,0
2022-08-27T04:41:09.341Z,0
2022-08-27T04:47:09.343Z,0
2022-08-27T04:53:09.318Z,0
2022-08-27T04:59:09.328Z,0
2022-08-27T05:05:12.062Z,0
2022-08-27T05:11:09.340Z,0
2022-08-27T05:17:09.399Z,0
2022-08-27T05:23:09.328Z,0
2022-08-27T05:29:09.319Z,0
2022-08-27T05:35:11.915Z,0
2022-08-27T05:41:09.405Z,0
2022-08-27T05:47:09.333Z,0
2022-08-27T05:53:09.350Z,0
2022-08-27T05:59:09.350Z,0
2022-08-27T06:05:09.402Z,0
2022-08-27T06:11:09.362Z,0
2022-08-27T06:17:09.335Z,0
2022-08-27T06:23:09.337Z,0
2022-08-27T06:29:09.373Z,0
2022-08-27T06:35:09.344Z,0
2022-08-27T06:41:16.401Z,0
2022-08-27T06:47:09.348Z,0
2022-08-27T06:53:09.349Z,0
2022-08-27T06:59:11.697Z,0
2022-08-27T07:05:09.378Z,0
2022-08-27T07:11:09.352Z,0
2022-08-27T07:17:11.341Z,0
2022-08-27T07:23:11.061Z,0
2022-08-27T07:29:09.349Z,0
2022-08-27T07:35:09.347Z,0
2022-08-27T07:41:09.451Z,0
2022-08-27T07:47:09.336Z,0
2022-08-27T07:53:09.344Z,0
2022-08-27T07:59:09.346Z,0
2022-08-27T08:05:09.353Z,0
2022-08-27T08:11:09.378Z,0
2022-08-27T08:17:10.384Z,0
2022-08-27T08:23:09.741Z,0
2022-08-27T08:29:09.362Z,0
2022-08-27T08:35:09.343Z,0
2022-08-27T08:41:09.369Z,0
2022-08-27T08:47:09.371Z,0
2022-08-27T08:53:09.340Z,0
2022-08-27T08:59:09.368Z,0
2022-08-27T09:05:09.382Z,0
2022-08-27T09:11:09.366Z,0
2022-08-27T09:17:11.500Z,0
2022-08-27T09:23:09.364Z,0
2022-08-27T09:29:09.357Z,0.4
2022-08-27T09:35:09.379Z,0.7
2022-08-27T09:41:09.372Z,0.5
2022-08-27T09:47:09.364Z,0.3
2022-08-27T09:53:09.357Z,0.4
2022-08-27T09:59:09.356Z,0.4
2022-08-27T10:05:09.350Z,0.5
2022-08-27T10:11:09.365Z,0.6
2022-08-27T10:17:09.399Z,0.8
2022-08-27T10:23:09.403Z,0.8
2022-08-27T10:29:09.394Z,0.7
2022-08-27T10:35:09.388Z,0.7
2022-08-27T10:41:09.375Z,1.2
2022-08-27T10:47:09.363Z,1.1
2022-08-27T10:53:09.366Z,1.5
2022-08-27T10:59:09.374Z,1.3
2022-08-27T11:05:09.365Z,1.6
2022-08-27T11:11:51.523Z,1.8
2022-08-27T11:17:09.392Z,2
2022-08-27T11:23:09.393Z,2.7
2022-08-27T11:29:09.879Z,2.4
2022-08-27T11:35:09.384Z,3.4
2022-08-27T11:41:09.388Z,3.6
2022-08-27T11:47:09.437Z,4.5
2022-08-27T11:53:09.392Z,4
2022-08-27T11:59:09.391Z,4.1
2022-08-27T12:05:09.410Z,4.5
2022-08-27T12:11:09.401Z,4.9
2022-08-27T12:17:09.419Z,5
2022-08-27T12:23:09.397Z,5.5
2022-08-27T12:29:09.394Z,5.4
2022-08-27T12:35:09.400Z,6.1
2022-08-27T12:41:09.436Z,6
2022-08-27T12:47:09.530Z,5.1
2022-08-27T12:53:09.402Z,5.9
2022-08-27T12:59:10.718Z,6.3
2022-08-27T13:05:10.212Z,6.4
2022-08-27T13:11:09.416Z,6.5
2022-08-27T13:17:09.425Z,6.8
2022-08-27T13:23:09.406Z,6.3
2022-08-27T13:29:09.418Z,6.1
2022-08-27T13:35:09.403Z,6.5
2022-08-27T13:41:09.418Z,6.6
2022-08-27T13:47:09.439Z,6.9
2022-08-27T13:53:12.266Z,6.9
2022-08-27T13:59:09.406Z,6.6
2022-08-27T14:05:09.418Z,6.4
2022-08-27T14:11:09.444Z,6.4
2022-08-27T14:17:09.416Z,6
2022-08-27T14:23:09.411Z,5.9
2022-08-27T14:29:12.339Z,5.8
2022-08-27T14:35:09.449Z,5.7
2022-08-27T14:41:09.432Z,5.7
2022-08-27T14:47:10.237Z,5.7
2022-08-27T14:53:09.437Z,5.5
2022-08-27T14:59:09.444Z,5.9
2022-08-27T15:05:12.497Z,6.1
2022-08-27T15:11:09.436Z,6
2022-08-27T15:17:10.977Z,6.5
2022-08-27T15:23:09.449Z,6.3
2022-08-27T15:29:09.459Z,6.3
2022-08-27T15:35:09.446Z,6.3
2022-08-27T15:41:09.461Z,6.3
2022-08-27T15:47:09.454Z,6.3
2022-08-27T15:53:09.450Z,6.5
2022-08-27T15:59:09.471Z,6.2
2022-08-27T16:05:09.484Z,6.2
2022-08-27T16:11:09.513Z,6
2022-08-27T16:17:09.460Z,6
2022-08-27T16:23:09.475Z,6.2
2022-08-27T16:29:09.467Z,6.2
2022-08-27T16:35:09.490Z,6.1
2022-08-27T16:41:09.450Z,6.2
2022-08-27T16:47:09.455Z,6.1
2022-08-27T16:53:09.448Z,6
2022-08-27T16:59:09.468Z,6.1
2022-08-27T17:05:33.386Z,6
2022-08-27T17:11:09.499Z,6
2022-08-27T17:17:09.492Z,6.1
2022-08-27T17:23:09.466Z,6.2
2022-08-27T17:29:09.464Z,6
2022-08-27T17:35:09.508Z,6.1
2022-08-27T17:41:09.484Z,6.1
2022-08-27T17:47:09.508Z,6.2
2022-08-27T17:53:09.468Z,5.9
2022-08-27T17:59:09.471Z,6.3
2022-08-27T18:05:09.535Z,6
2022-08-27T18:11:09.482Z,5.9
2022-08-27T18:17:09.538Z,6
2022-08-27T18:23:09.472Z,6
2022-08-27T18:29:09.480Z,5.9
2022-08-27T18:35:09.494Z,5.9
2022-08-27T18:41:09.491Z,5.8
2022-08-27T18:47:09.510Z,5.8
2022-08-27T18:53:09.491Z,5.5
2022-08-27T18:59:09.517Z,5.7
2022-08-27T19:05:09.499Z,5.8
2022-08-27T19:11:09.512Z,5.9
2022-08-27T19:17:09.500Z,5.9
2022-08-27T19:23:09.486Z,5.8
2022-08-27T19:29:09.503Z,5.9
2022-08-27T19:35:09.507Z,6
2022-08-27T19:41:09.505Z,5.9
2022-08-27T19:47:09.503Z,5.8
2022-08-27T19:53:09.503Z,5.7
2022-08-27T19:59:20.385Z,6
2022-08-27T20:05:18.304Z,5.8
2022-08-27T20:11:09.509Z,5.7
2022-08-27T20:17:09.523Z,5.7
2022-08-27T20:23:09.498Z,5.5
2022-08-27T20:29:09.571Z,5.7
2022-08-27T20:35:09.515Z,5.4
2022-08-27T20:41:09.535Z,5.5
2022-08-27T20:47:09.516Z,5.5
2022-08-27T20:53:09.543Z,5.6
2022-08-27T20:59:09.535Z,5.8
2022-08-27T21:05:09.500Z,5.6
2022-08-27T21:11:09.505Z,5.6
2022-08-27T21:17:09.539Z,5.7
2022-08-27T21:23:09.543Z,5.9
2022-08-27T21:29:09.566Z,5.9
2022-08-27T21:35:09.539Z,5.9
2022-08-27T21:41:09.523Z,6.1
2022-08-27T21:47:09.566Z,6.3
2022-08-27T21:53:09.545Z,6.4
2022-08-27T21:59:09.550Z,6.6
2022-08-27T22:05:09.551Z,6.6
2022-08-27T22:11:09.540Z,6.5
2022-08-27T22:17:09.524Z,6.6
2022-08-27T22:23:09.556Z,6.6
2022-08-27T22:29:09.536Z,6.6
2022-08-27T22:35:09.536Z,6.6
2022-08-27T22:41:09.539Z,6.5
2022-08-27T22:47:09.564Z,6.4
2022-08-27T22:53:09.538Z,6.5
2022-08-27T22:59:09.556Z,6.6
2022-08-27T23:05:10.141Z,6.5
2022-08-27T23:11:09.556Z,6.5
2022-08-27T23:17:09.531Z,6.7
2022-08-27T23:23:09.671Z,6.6
2022-08-27T23:29:09.625Z,6.4
2022-08-27T23:35:09.561Z,6.1
2022-08-27T23:41:09.538Z,5.9
2022-08-27T23:47:09.615Z,6
2022-08-27T23:53:09.573Z,6.1
2022-08-27T23:59:09.567Z,6.4
